Aviation Digital Data Service (ADDS)

Output produced by TAFs form (2340 UTC 18 July 2018)
found at http://www.aviationweather.gov/adds/tafs/
 
RJBB 182330Z 27003KT 9000 NSC 30/24 Q1011 NOSIG
TAF RJBB 182309Z 1900/2006 26006KT 9999 FEW030